Estación Meteorológica Peña el Pijo (Robertgarden) [ 11/17/17 23:57:58 CET ]

Fecha Hora Presion(HPa) Temp (°C) Humedad % Rocio (°C) Viento ( m/s) Direccion Lluvia 1Hora(mm) Lluvia 24H(mm) LLuvia Total(mm)
2017-Sep-23 01:01:57 1013.800 13.8 81 10.6         1457.65
2017-Sep-23 02:01:55 1013.600 13.1 82 10.1         1457.65
2017-Sep-23 03:02:06 1013.400 12.3 80 9.1         1457.65
2017-Sep-23 04:02:02 1013.200 10.4 82 7.4         1457.65
2017-Sep-23 05:02:23 1012.700 9.2 83 6.4         1457.65
2017-Sep-23 06:01:30 1012.700 8.7 84 6.1         1457.65
2017-Sep-23 07:01:48 1012.600 8.9 85 6.5         1457.65
2017-Sep-23 08:01:42 1012.900 8.6 86 6.4         1457.65
2017-Sep-23 09:01:42 1013.100 9.3 87 7.2         1457.65
2017-Sep-23 10:01:54 1013.200 13.6 85 11.1         1457.65
2017-Sep-23 11:01:53 1013.400 18.1 68 12.1         1457.65
2017-Sep-23 12:02:02 1013.200 22.4 47 10.5         1457.65
2017-Sep-23 13:01:48 1013.100 26.6 32 8.5         1457.65
2017-Sep-23 14:01:36 1012.900 25.5 37 9.7         1457.65
2017-Sep-23 15:01:38 1012.600 28.6 34 11.1         1457.65
2017-Sep-23 16:01:38 1012.000 28.3 31 9.5         1457.65
2017-Sep-23 17:01:42 1011.600 28.2 32 9.9         1457.65
2017-Sep-23 18:01:29 1011.700 26.5 34 9.3         1457.65
2017-Sep-23 19:01:27 1012.000 23.6 40 9.2         1457.65
2017-Sep-23 20:01:36 1012.300 20.4 50 9.7         1457.65
2017-Sep-23 21:01:23 1013.100 18.2 59 10.0         1457.65
2017-Sep-23 22:01:44 1013.800 16.8 63 9.7         1457.65
2017-Sep-23 23:01:54 1014.700 13.9 68 8.1         1457.65

Temperatura Máxima:28°    Temperatura Mínima:
Presión Máxima:1014.700 Hpa    Presión Mínima:1011.600 Hpa


Volver